Latest Weather Observations for Derby

IDW60801

Issued at 10:02 pm WST Sunday 25 January 2015 (issued every 30 minutes, with the page automatically refreshed every 10 minutes)

About weather observations | Map of weather stations | Latest weather observations for WA | Other Formats
Station Details ID: 003032 Name: DERBY AERO Lat: -17.37 Lon: 123.66 Height: 6.2 m
Data from the previous 72 hours. | See also: Recent months at Derby
Date/Time
WST
Temp
°C
App
Temp
°C
Dew
Point
Rel
Hum
%
Delta-T
°C
Wind Press
QNH
hPa
Press
MSL
hPa
Rain
since 9 am
mm
Dir
 
Spd
km/h
Gust
km/h
Spd
kts
Gust
kts
25/10:00pm 28.9 32.8 25.5 82 2.4 WNW 15 19 8 10 1007.9 1007.9 0.0
25/09:30pm 29.3 32.7 25.3 79 2.8 NW 17 20 9 11 1007.6 1007.6 0.0
25/09:00pm 29.7 33.2 25.4 78 3.0 NW 17 20 9 11 1007.5 1007.5 0.0
25/08:30pm 29.9 33.6 26.3 81 2.6 NNW 19 24 10 13 1007.4 1007.4 0.0
25/08:00pm 29.9 33.4 26.3 81 2.6 NNW 20 26 11 14 1006.7 1006.7 0.0
25/07:30pm 30.1 32.3 24.3 71 4.0 NNW 20 24 11 13 1006.6 1006.6 0.0
25/07:00pm 30.2 32.8 24.6 72 3.9 NNW 19 22 10 12 1006.3 1006.2 0.0
25/06:30pm 30.1 32.2 25.4 76 3.3 NNW 24 30 13 16 1005.9 1005.8 0.0
25/06:00pm 30.6 32.6 25.2 73 3.8 NNW 24 28 13 15 1005.4 1005.3 0.0
25/05:30pm 31.9 34.7 25.2 67 4.7 NNW 20 28 11 15 1005.1 1005.0 0.0
25/05:00pm 33.0 35.5 24.7 61 5.9 NNW 20 24 11 13 1005.0 1004.9 0.0
25/04:30pm 33.6 36.0 24.2 58 6.6 NNW 19 24 10 13 1005.1 1005.0 0.0
25/04:00pm 33.3 35.8 25.3 63 5.7 NNW 22 28 12 15 1005.4 1005.3 0.0
25/03:30pm 32.7 33.7 24.7 62 5.6 NNW 28 32 15 17 1005.6 1005.5 0.0
25/03:00pm 33.3 35.0 25.3 63 5.7 NNW 26 33 14 18 1006.0 1005.9 0.0
25/02:30pm 33.6 35.6 25.8 63 5.6 NNW 26 32 14 17 1006.1 1006.0 0.0
25/02:00pm 35.9 39.6 22.5 46 9.3 SW 7 11 4 6 1006.5 1006.5 0.0
25/01:30pm 35.5 38.7 23.1 48 8.6 S 11 17 6 9 1006.9 1006.9 0.0
25/01:00pm 35.2 39.3 22.9 49 8.5 WSW 6 9 3 5 1007.0 1007.0 0.0
25/12:30pm 34.9 37.9 21.9 46 8.9 SSW 9 15 5 8 1007.4 1007.4 0.0
25/12:00pm 34.5 37.6 23.5 52 7.7 SE 13 20 7 11 1007.8 1007.8 0.0
25/11:30am 34.6 37.9 23.9 53 7.5 ESE 13 22 7 12 1008.3 1008.3 0.0
25/11:00am 33.2 34.1 22.0 51 7.6 SE 20 32 11 17 1008.9 1008.9 0.0
25/10:30am 32.4 33.8 22.8 57 6.6 SE 20 28 11 15 1009.4 1009.4 0.0
25/10:00am 32.0 33.7 23.0 59 6.2 SSE 19 26 10 14 1009.8 1009.8 0.0
25/09:30am 30.5 33.0 22.4 62 5.5 SSE 13 22 7 12 1010.0 1010.0 0.0
25/09:00am 29.9 32.2 20.7 57 6.1 SE 9 15 5 8 1009.8 1009.8 0.0
25/08:30am 29.4 33.3 21.9 64 5.1 NE 4 9 2 5 1009.8 1009.8 0.0
25/08:00am 28.0 31.5 22.9 74 3.5 N 9 13 5 7 1009.1 1009.1 0.0
25/07:30am 26.5 29.8 22.6 79 2.6 NNW 9 15 5 8 1008.9 1008.9 0.0
25/07:00am 25.8 30.0 23.1 85 1.8 W 6 9 3 5 1008.4 1008.4 0.0
25/06:30am 24.8 29.1 22.7 88 1.4 NW 4 7 2 4 1008.5 1008.5 0.0
25/06:00am 24.5 29.2 22.6 89 1.3 SW 2 7 1 4 1007.9 1007.9 0.0
25/05:30am 24.6 27.2 22.7 89 1.3 SSW 13 19 7 10 1008.6 1008.6 0.0
25/05:00am 24.9 26.6 22.4 86 1.7 S 17 20 9 11 1008.4 1008.4 0.0
25/04:30am 25.1 25.5 22.4 85 1.8 S 24 32 13 17 1008.1 1008.1 0.0
25/04:00am 26.9 27.2 23.6 82 2.3 SSW 28 41 15 22 1008.1 1008.1 0.0
25/03:30am 27.7 29.5 24.3 82 2.4 SW 22 30 12 16 1007.4 1007.4 0.0
25/03:00am 26.2 29.4 23.7 86 1.7 S 13 20 7 11 1006.9 1006.9 0.0
25/02:30am 26.3 30.2 23.0 82 2.2 S 7 15 4 8 1006.2 1006.1 0.0
25/02:00am 26.8 29.4 22.6 78 2.8 NNE 13 19 7 10 1006.2 1006.1 0.0
25/01:30am 27.1 30.5 22.7 77 3.0 NNE 9 15 5 8 1006.5 1006.5 0.0
25/01:00am 27.3 29.9 22.7 76 3.1 NNE 13 19 7 10 1006.8 1006.8 0.0
25/12:30am 27.4 29.8 22.3 73 3.4 N 13 19 7 10 1005.9 1005.8 0.0
25/12:00am 26.4 27.9 22.0 77 3.0 NNW 17 24 9 13 1005.8 1005.7 0.0
 
Date/Time
WST
Temp
°C
App
Temp
°C
Dew
Point
Rel
Hum
%
Delta-T
°C
Wind Press
QNH
hPa
Press
MSL
hPa
Rain
since 9 am
mm
Dir
 
Spd
km/h
Gust
km/h
Spd
kts
Gust
kts
24/11:30pm 26.3 25.3 21.3 74 3.3 NNE 28 44 15 24 1007.5 1007.5 0.0
24/11:12pm 28.7 29.0 24.3 77 3.1 N 30 52 16 28 1008.6 1008.6 0.0
24/11:00pm 29.2 31.9 26.8 87 1.7 N 26 32 14 17 1008.8 1008.8 0.0
24/10:30pm 29.5 32.6 26.9 86 1.9 N 24 32 13 17 1008.8 1008.8 0.0
24/10:00pm 29.8 33.9 27.2 86 1.9 NNW 20 28 11 15 1008.0 1008.0 0.0
24/09:30pm 29.9 33.5 27.5 87 1.7 NNW 24 30 13 16 1007.0 1007.0 0.0
24/09:00pm 30.2 34.3 27.2 84 2.2 N 20 26 11 14 1007.4 1007.4 0.0
24/08:30pm 29.9 35.1 26.9 84 2.2 N 13 15 7 8 1007.1 1007.1 0.0
24/08:00pm 30.0 35.2 26.8 83 2.3 NW 13 17 7 9 1006.2 1006.1 0.0
24/07:30pm 30.1 35.0 26.9 83 2.3 NNW 15 17 8 9 1006.2 1006.1 0.0
24/07:00pm 30.3 34.6 26.7 81 2.6 N 17 22 9 12 1005.7 1005.6 0.0
24/06:30pm 30.7 34.6 26.6 79 2.9 NNW 19 22 10 12 1005.2 1005.1 0.0
24/06:00pm 31.3 34.7 25.9 73 3.9 NNW 19 22 10 12 1004.7 1004.6 0.0
24/05:30pm 32.2 35.7 26.3 71 4.2 NNW 20 24 11 13 1004.4 1004.3 0.0
24/05:00pm 33.3 36.7 25.8 65 5.4 NNW 19 22 10 12 1004.2 1004.1 0.0
24/04:30pm 33.8 37.1 26.0 63 5.6 NNW 20 28 11 15 1004.1 1004.0 0.0
24/04:00pm 34.4 37.8 25.2 58 6.6 N 17 24 9 13 1004.1 1004.0 0.0
24/03:30pm 34.2 37.5 24.5 57 6.8 NNE 15 22 8 12 1004.4 1004.3 0.0
24/03:00pm 34.5 37.0 24.4 55 7.1 N 19 26 10 14 1004.7 1004.6 0.0
24/02:30pm 34.4 37.6 24.3 55 7.1 NNE 15 22 8 12 1004.8 1004.7 0.0
24/02:00pm 34.3 37.8 24.2 55 7.1 NNE 13 20 7 11 1005.2 1005.1 0.0
24/01:30pm 34.0 38.1 24.6 58 6.6 NNE 11 32 6 17 1005.6 1005.5 0.0
24/01:00pm 34.0 38.9 24.6 58 6.6 N 7 13 4 7 1005.9 1005.8 0.0
24/12:30pm 34.1 39.5 25.2 59 6.3 NNE 6 11 3 6 1006.4 1006.4 0.0
24/12:00pm 32.9 38.2 24.4 61 6.0 NW 4 9 2 5 1006.8 1006.8 0.0
24/11:30am 32.2 37.9 25.0 65 5.1 NNW 4 9 2 5 1007.1 1007.1 0.0
24/11:00am 32.5 38.6 25.6 67 4.9 W 4 9 2 5 1007.6 1007.6 0.0
24/10:30am 32.0 37.3 25.3 67 4.7 WSW 7 11 4 6 1007.8 1007.8 0.0
24/10:00am 31.6 36.8 25.7 71 4.2 SW 9 13 5 7 1007.9 1007.9 0.0
24/09:30am 31.1 35.9 25.7 73 3.8 WSW 11 15 6 8 1008.0 1008.0 0.0
24/09:00am 30.5 34.6 25.8 76 3.3 WSW 15 20 8 11 1008.0 1008.0 0.0
24/08:30am 30.4 34.6 25.9 77 3.2 W 15 20 8 11 1008.1 1008.1 0.0
24/08:00am 30.0 33.9 26.0 79 2.8 WNW 17 22 9 12 1007.9 1007.9 0.0
24/07:30am 29.0 32.5 25.4 81 2.5 WNW 17 22 9 12 1007.7 1007.7 0.0
24/07:00am 29.2 33.1 26.0 83 2.3 WNW 17 20 9 11 1007.4 1007.4 0.0
24/06:30am 28.6 32.7 25.8 85 2.0 WNW 15 19 8 10 1007.2 1007.2 0.0
24/06:00am 28.0 32.5 25.8 88 1.6 NW 13 17 7 9 1007.0 1007.0 0.0
24/05:30am 27.8 32.7 25.8 89 1.4 WNW 11 15 6 8 1006.5 1006.5 0.0
24/05:00am 27.9 32.0 25.7 88 1.6 WNW 15 19 8 10 1006.0 1005.9 0.0
24/04:30am 27.8 31.9 25.8 89 1.4 WNW 15 19 8 10 1005.9 1005.8 0.0
24/04:00am 27.8 31.9 25.8 89 1.4 NW 15 20 8 11 1005.7 1005.6 0.0
24/03:30am 27.9 33.4 26.1 90 1.3 WNW 9 11 5 6 1005.5 1005.4 0.0
24/03:00am 27.8 32.8 26.0 90 1.3 WNW 11 15 6 8 1005.5 1005.4 0.0
24/02:30am 28.0 32.8 26.2 90 1.3 WNW 13 17 7 9 1005.4 1005.3 0.0
24/02:00am 27.9 33.1 26.3 91 1.1 WNW 11 15 6 8 1005.5 1005.4 0.0
24/01:30am 27.9 32.6 26.1 90 1.3 WNW 13 17 7 9 1005.4 1005.3 0.0
24/01:00am 28.0 32.8 26.2 90 1.3 WNW 13 17 7 9 1005.6 1005.5 0.0
24/12:30am 28.1 32.0 26.1 89 1.4 WNW 17 22 9 12 1005.8 1005.7 0.0
24/12:00am 28.2 32.7 26.4 90 1.3 WNW 15 19 8 10 1005.9 1005.8 0.0
 
Date/Time
WST
Temp
°C
App
Temp
°C
Dew
Point
Rel
Hum
%
Delta-T
°C
Wind Press
QNH
hPa
Press
MSL
hPa
Rain
since 9 am
mm
Dir
 
Spd
km/h
Gust
km/h
Spd
kts
Gust
kts
23/11:30pm 28.5 32.9 26.3 88 1.6 WNW 15 22 8 12 1006.2 1006.1 0.0
23/11:00pm 28.8 32.8 26.2 86 1.9 WNW 17 22 9 12 1006.5 1006.5 0.0
23/10:30pm 28.9 32.7 26.5 87 1.7 WNW 19 24 10 13 1006.5 1006.5 0.0
23/10:00pm 29.3 32.7 26.7 86 1.9 NW 22 26 12 14 1006.4 1006.4 0.0
23/09:30pm 29.6 32.7 26.8 85 2.0 NW 24 30 13 16 1006.5 1006.5 0.0
23/09:00pm 29.9 32.5 26.7 83 2.3 NNW 26 33 14 18 1006.3 1006.2 0.0
23/08:30pm 30.4 33.0 27.2 83 2.3 NNW 28 35 15 19 1006.2 1006.1 0.0
23/08:00pm 30.4 34.6 27.4 84 2.2 N 20 28 11 15 1005.9 1005.8 0.0
23/07:30pm 30.4 34.6 27.4 84 2.2 N 20 30 11 16 1005.2 1005.1 0.0
23/07:00pm 30.6 34.7 27.2 82 2.5 N 20 28 11 15 1004.9 1004.8 0.0
23/06:30pm 30.9 34.7 26.8 79 2.9 N 20 28 11 15 1004.5 1004.4 0.0
23/06:00pm 31.3 35.1 26.8 77 3.2 N 20 28 11 15 1004.2 1004.1 0.0
23/05:30pm 31.8 35.3 26.8 75 3.6 N 22 30 12 16 1003.7 1003.6 0.0
23/05:00pm 32.4 35.4 26.7 72 4.1 N 24 30 13 16 1003.2 1003.1 0.0
23/04:30pm 33.1 37.1 27.1 71 4.3 N 20 28 11 15 1002.9 1002.8 0.0
23/04:00pm 33.3 36.4 26.8 68 4.7 NNW 24 30 13 16 1002.7 1002.6 0.0
23/03:30pm 33.2 36.1 26.5 68 4.8 NNW 24 30 13 16 1002.8 1002.7 0.0
23/03:00pm 33.4 37.6 27.4 71 4.4 NNW 20 26 11 14 1003.0 1002.9 0.0
23/02:30pm 33.3 36.8 26.8 68 4.7 NNW 22 28 12 15 1003.2 1003.1 0.0
23/02:00pm 33.7 38.4 27.2 69 4.7 NNW 17 24 9 13 1003.5 1003.4 0.0
23/01:30pm 33.3 37.2 26.1 66 5.2 NNW 17 22 9 12 1003.6 1003.5 0.0
23/01:00pm 33.2 37.9 26.7 68 4.7 NW 15 20 8 11 1004.1 1004.0 0.0
23/12:30pm 32.9 37.7 26.2 68 4.8 NW 13 17 7 9 1004.6 1004.5 0.0
23/12:00pm 32.8 38.6 26.6 70 4.5 NNW 9 19 5 10 1005.1 1005.0 0.0
23/11:30am 32.3 37.1 26.8 73 4.0 NNW 15 22 8 12 1005.5 1005.4 0.0
23/11:00am 31.7 36.1 26.3 73 3.9 NW 15 20 8 11 1006.0 1005.9 0.0
23/10:30am 31.7 36.0 26.7 75 3.6 NW 17 20 9 11 1006.2 1006.1 0.0
23/10:00am 30.9 35.3 26.2 76 3.4 NNW 15 20 8 11 1006.5 1006.5 0.0
23/09:30am 30.5 34.4 26.0 77 3.2 NNW 17 20 9 11 1006.8 1006.8 0.0
23/09:00am 30.4 33.7 25.7 76 3.3 NW 19 22 10 12 1006.7 1006.7 -
23/08:30am 30.0 33.0 25.5 77 3.2 NW 20 28 11 15 1006.6 1006.6 -
23/08:00am 30.0 33.1 25.7 78 3.1 NW 20 22 11 12 1006.4 1006.4 -
23/07:30am 29.7 32.6 25.4 78 3.0 NW 20 24 11 13 1006.2 1006.1 -
23/07:00am 29.2 32.1 25.4 80 2.7 NW 20 24 11 13 1006.0 1005.9 -
23/06:30am 28.8 32.3 25.4 82 2.4 NW 17 22 9 12 1005.8 1005.7 -
23/06:00am 27.9 32.5 25.3 86 1.8 NNW 11 15 6 8 1005.7 1005.6 -
23/05:30am 27.7 31.4 25.1 86 1.8 NNW 15 19 8 10 1005.5 1005.4 -
23/05:00am 27.7 32.4 24.9 85 2.0 NW 9 13 5 7 1005.9 1005.8 -
23/04:30am 28.1 32.9 25.1 84 2.1 WNW 9 13 5 7 1005.7 1005.6 -
23/04:00am 28.1 32.9 25.1 84 2.1 WNW 9 13 5 7 1005.2 1005.1 -
23/03:30am 27.8 32.7 25.2 86 1.8 WNW 9 11 5 6 1005.0 1004.9 -
23/03:00am 27.7 30.9 24.9 85 2.0 W 17 20 9 11 1004.9 1004.8 0.0
23/02:30am 28.1 31.8 25.1 84 2.1 W 15 22 8 12 1004.9 1004.8 -
23/02:00am 28.2 31.6 25.2 84 2.1 W 17 22 9 12 1005.2 1005.1 -
23/01:30am 28.2 31.6 25.2 84 2.1 W 17 22 9 12 1005.3 1005.2 -
23/01:00am 28.4 32.1 25.2 83 2.3 W 15 20 8 11 1005.3 1005.2 -
23/12:30am 28.4 32.6 25.4 84 2.1 WNW 13 19 7 10 1005.4 1005.3 -
23/12:00am 28.3 31.7 25.3 84 2.1 WNW 17 22 9 12 1005.4 1005.3 -
 
Date/Time
WST
Temp
°C
App
Temp
°C
Dew
Point
Rel
Hum
%
Delta-T
°C
Wind Press
QNH
hPa
Press
MSL
hPa
Rain
since 9 am
mm
Dir
 
Spd
km/h
Gust
km/h
Spd
kts
Gust
kts
22/11:30pm 28.1 32.0 25.5 86 1.8 NW 15 19 8 10 1005.4 1005.3 -
22/11:00pm 28.0 32.6 25.4 86 1.8 NW 11 13 6 7 1005.5 1005.4 -
22/10:30pm 28.4 32.1 25.2 83 2.2 NW 15 19 8 10 1005.8 1005.7 -

Other Formats:

Comma delimited format used in spreadsheet applications
http://www.bom.gov.au/fwo/IDW60801/IDW60801.95205.axf

JavaScript Object Notation format (JSON) in row-major order
http://www.bom.gov.au/fwo/IDW60801/IDW60801.95205.json